sensor_id;sensor_type;location;lat;lon;timestamp;pressure;altitude;pressure_sealevel;temperature;humidity
21431;BME280;10876;49.038;10.608;2023-05-12T00:02:17;100064.56;;;10.41;100.00
21431;BME280;10876;49.038;10.608;2023-05-12T00:04:44;100078.81;;;10.43;100.00
21431;BME280;10876;49.038;10.608;2023-05-12T00:07:10;100094.13;;;10.44;100.00
21431;BME280;10876;49.038;10.608;2023-05-12T00:09:37;100104.00;;;10.45;100.00
21431;BME280;10876;49.038;10.608;2023-05-12T00:12:07;100112.78;;;10.42;100.00
21431;BME280;10876;49.038;10.608;2023-05-12T00:14:34;100128.66;;;10.40;100.00
21431;BME280;10876;49.038;10.608;2023-05-12T00:17:02;100131.66;;;10.48;100.00
21431;BME280;10876;49.038;10.608;2023-05-12T00:19:29;100144.81;;;10.46;100.00
21431;BME280;10876;49.038;10.608;2023-05-12T00:21:56;100143.44;;;10.44;100.00
21431;BME280;10876;49.038;10.608;2023-05-12T00:24:23;100162.59;;;10.44;100.00
21431;BME280;10876;49.038;10.608;2023-05-12T00:26:50;100169.19;;;10.43;100.00
21431;BME280;10876;49.038;10.608;2023-05-12T00:29:18;100168.09;;;10.44;100.00
21431;BME280;10876;49.038;10.608;2023-05-12T00:31:45;100180.72;;;10.45;100.00
21431;BME280;10876;49.038;10.608;2023-05-12T00:34:11;100194.41;;;10.45;100.00
21431;BME280;10876;49.038;10.608;2023-05-12T00:36:38;100205.06;;;10.41;100.00
21431;BME280;10876;49.038;10.608;2023-05-12T00:39:05;100208.66;;;10.42;100.00
21431;BME280;10876;49.038;10.608;2023-05-12T00:41:32;100223.69;;;10.44;100.00
21431;BME280;10876;49.038;10.608;2023-05-12T00:43:58;100222.34;;;10.42;100.00
21431;BME280;10876;49.038;10.608;2023-05-12T00:46:26;100233.56;;;10.45;100.00
21431;BME280;10876;49.038;10.608;2023-05-12T00:48:53;100246.16;;;10.46;100.00
21431;BME280;10876;49.038;10.608;2023-05-12T00:51:20;100261.53;;;10.47;100.00
21431;BME280;10876;49.038;10.608;2023-05-12T00:53:47;100267.81;;;10.48;100.00
21431;BME280;10876;49.038;10.608;2023-05-12T00:56:14;100278.78;;;10.48;100.00
21431;BME280;10876;49.038;10.608;2023-05-12T00:58:42;100288.94;;;10.47;100.00
21431;BME280;10876;49.038;10.608;2023-05-12T01:01:09;100284.81;;;10.45;100.00
21431;BME280;10876;49.038;10.608;2023-05-12T01:03:37;100298.22;;;10.46;100.00
21431;BME280;10876;49.038;10.608;2023-05-12T01:06:09;100303.44;;;10.43;100.00
21431;BME280;10876;49.038;10.608;2023-05-12T01:08:38;100305.06;;;10.44;100.00
21431;BME280;10876;49.038;10.608;2023-05-12T01:11:05;100318.22;;;10.47;100.00
21431;BME280;10876;49.038;10.608;2023-05-12T01:13:32;100323.69;;;10.42;100.00
21431;BME280;10876;49.038;10.608;2023-05-12T01:16:01;100329.72;;;10.44;100.00
21431;BME280;10876;49.038;10.608;2023-05-12T01:18:29;100331.09;;;10.46;100.00
21431;BME280;10876;49.038;10.608;2023-05-12T01:20:59;100376.28;;;10.44;100.00
21431;BME280;10876;49.038;10.608;2023-05-12T01:23:35;100376.81;;;10.41;100.00
21431;BME280;10876;49.038;10.608;2023-05-12T01:26:05;100389.97;;;10.44;100.00
21431;BME280;10876;49.038;10.608;2023-05-12T01:28:34;100396.56;;;10.43;100.00
21431;BME280;10876;49.038;10.608;2023-05-12T01:31:02;100398.19;;;10.44;100.00
21431;BME280;10876;49.038;10.608;2023-05-12T01:33:30;100405.34;;;10.45;100.00
21431;BME280;10876;49.038;10.608;2023-05-12T01:35:56;100405.28;;;10.34;100.00
21431;BME280;10876;49.038;10.608;2023-05-12T01:38:23;100417.91;;;10.41;100.00
21431;BME280;10876;49.038;10.608;2023-05-12T01:40:50;100416.53;;;10.38;100.00
21431;BME280;10876;49.038;10.608;2023-05-12T01:43:18;100445.88;;;10.43;100.00
21431;BME280;10876;49.038;10.608;2023-05-12T01:45:46;100456.81;;;10.43;100.00
21431;BME280;10876;49.038;10.608;2023-05-12T01:48:12;100466.16;;;10.42;100.00
21431;BME280;10876;49.038;10.608;2023-05-12T01:50:39;100462.28;;;10.37;100.00
21431;BME280;10876;49.038;10.608;2023-05-12T01:53:06;100463.38;;;10.36;100.00
21431;BME280;10876;49.038;10.608;2023-05-12T01:55:34;100475.97;;;10.37;100.00
21431;BME280;10876;49.038;10.608;2023-05-12T01:58:01;100479.53;;;10.38;100.00
21431;BME280;10876;49.038;10.608;2023-05-12T02:00:29;100483.66;;;10.41;100.00
21431;BME280;10876;49.038;10.608;2023-05-12T02:02:56;100491.88;;;10.41;100.00
21431;BME280;10876;49.038;10.608;2023-05-12T02:05:23;100496.78;;;10.38;100.00
21431;BME280;10876;49.038;10.608;2023-05-12T02:07:50;100493.78;;;10.40;100.00
21431;BME280;10876;49.038;10.608;2023-05-12T02:10:16;100504.50;;;10.42;100.00
21431;BME280;10876;49.038;10.608;2023-05-12T02:12:43;100500.66;;;10.43;100.00
21431;BME280;10876;49.038;10.608;2023-05-12T02:15:10;100509.44;;;10.45;100.00
21431;BME280;10876;49.038;10.608;2023-05-12T02:17:38;100508.06;;;10.42;100.00
21431;BME280;10876;49.038;10.608;2023-05-12T02:20:06;100514.94;;;10.45;100.00
21431;BME280;10876;49.038;10.608;2023-05-12T02:22:33;100513.78;;;10.41;100.00
21431;BME280;10876;49.038;10.608;2023-05-12T02:25:00;100514.59;;;10.41;100.00
21431;BME280;10876;49.038;10.608;2023-05-12T02:27:27;100512.16;;;10.40;100.00
21431;BME280;10876;49.038;10.608;2023-05-12T02:29:56;100521.75;;;10.42;100.00
21431;BME280;10876;49.038;10.608;2023-05-12T02:32:23;100517.63;;;10.40;100.00
21431;BME280;10876;49.038;10.608;2023-05-12T02:34:53;100518.97;;;10.37;100.00
21431;BME280;10876;49.038;10.608;2023-05-12T02:37:20;100521.72;;;10.37;100.00
21431;BME280;10876;49.038;10.608;2023-05-12T02:39:47;100516.81;;;10.39;100.00
21431;BME280;10876;49.038;10.608;2023-05-12T02:42:14;100518.16;;;10.36;100.00
21431;BME280;10876;49.038;10.608;2023-05-12T02:44:40;100500.06;;;10.35;100.00
21431;BME280;10876;49.038;10.608;2023-05-12T02:47:07;100504.44;;;10.31;100.00
21431;BME280;10876;49.038;10.608;2023-05-12T02:49:34;100504.19;;;10.38;100.00
21431;BME280;10876;49.038;10.608;2023-05-12T02:52:02;100496.28;;;10.42;100.00
21431;BME280;10876;49.038;10.608;2023-05-12T02:54:29;100503.66;;;10.41;100.00
21431;BME280;10876;49.038;10.608;2023-05-12T02:56:55;100499.00;;;10.36;100.00
21431;BME280;10876;49.038;10.608;2023-05-12T02:59:24;100494.88;;;10.34;100.00
21431;BME280;10876;49.038;10.608;2023-05-12T03:01:50;100483.09;;;10.33;100.00
21431;BME280;10876;49.038;10.608;2023-05-12T03:04:17;100485.28;;;10.36;100.00
21431;BME280;10876;49.038;10.608;2023-05-12T03:06:44;100472.66;;;10.35;100.00
21431;BME280;10876;49.038;10.608;2023-05-12T03:09:12;100469.09;;;10.35;100.00
21431;BME280;10876;49.038;10.608;2023-05-12T03:11:38;100469.38;;;10.33;100.00
21431;BME280;10876;49.038;10.608;2023-05-12T03:14:05;100465.56;;;10.34;100.00
21431;BME280;10876;49.038;10.608;2023-05-12T03:16:32;100455.94;;;10.32;100.00
21431;BME280;10876;49.038;10.608;2023-05-12T03:18:58;100467.19;;;10.35;100.00
21431;BME280;10876;49.038;10.608;2023-05-12T03:21:25;100457.88;;;10.31;100.00
21431;BME280;10876;49.038;10.608;2023-05-12T03:23:52;100459.25;;;10.34;100.00
21431;BME280;10876;49.038;10.608;2023-05-12T03:26:20;100446.38;;;10.34;100.00
21431;BME280;10876;49.038;10.608;2023-05-12T03:28:47;100449.13;;;10.34;100.00
21431;BME280;10876;49.038;10.608;2023-05-12T03:31:14;100450.53;;;10.42;100.00
21431;BME280;10876;49.038;10.608;2023-05-12T03:33:41;100448.00;;;10.35;100.00
21431;BME280;10876;49.038;10.608;2023-05-12T03:36:08;100442.53;;;10.30;100.00
21431;BME280;10876;49.038;10.608;2023-05-12T03:38:35;100445.81;;;10.32;100.00
21431;BME280;10876;49.038;10.608;2023-05-12T03:41:03;100441.69;;;10.30;100.00
21431;BME280;10876;49.038;10.608;2023-05-12T03:43:31;100437.06;;;10.30;100.00
21431;BME280;10876;49.038;10.608;2023-05-12T03:45:58;100434.31;;;10.30;100.00
21431;BME280;10876;49.038;10.608;2023-05-12T03:48:24;100425.78;;;10.27;100.00
21431;BME280;10876;49.038;10.608;2023-05-12T03:50:51;100441.44;;;10.31;100.00
21431;BME280;10876;49.038;10.608;2023-05-12T03:53:18;100437.59;;;10.27;100.00
21431;BME280;10876;49.038;10.608;2023-05-12T03:55:45;100435.88;;;10.26;100.00
21431;BME280;10876;49.038;10.608;2023-05-12T03:58:11;100441.69;;;10.30;100.00
21431;BME280;10876;49.038;10.608;2023-05-12T04:00:39;100437.88;;;10.31;100.00
21431;BME280;10876;49.038;10.608;2023-05-12T04:03:06;100431.81;;;10.29;100.00
21431;BME280;10876;49.038;10.608;2023-05-12T04:05:33;100437.59;;;10.27;100.00
21431;BME280;10876;49.038;10.608;2023-05-12T04:08:00;100434.25;;;10.25;100.00
21431;BME280;10876;49.038;10.608;2023-05-12T04:10:27;100426.63;;;10.27;100.00
21431;BME280;10876;49.038;10.608;2023-05-12T04:12:54;100440.31;;;10.27;100.00
21431;BME280;10876;49.038;10.608;2023-05-12T04:15:20;100445.00;;;10.32;100.00
21431;BME280;10876;49.038;10.608;2023-05-12T04:17:48;100441.69;;;10.30;100.00
21431;BME280;10876;49.038;10.608;2023-05-12T04:20:15;100445.22;;;10.25;100.00
21431;BME280;10876;49.038;10.608;2023-05-12T04:22:43;100446.34;;;10.29;100.00
21431;BME280;10876;49.038;10.608;2023-05-12T04:25:10;100448.25;;;10.29;100.00
21431;BME280;10876;49.038;10.608;2023-05-12T04:27:36;100445.22;;;10.25;100.00
21431;BME280;10876;49.038;10.608;2023-05-12T04:30:04;100451.59;;;10.36;100.00
21431;BME280;10876;49.038;10.608;2023-05-12T04:32:31;100451.28;;;10.27;100.00
21431;BME280;10876;49.038;10.608;2023-05-12T04:34:59;100439.72;;;10.25;100.00
21431;BME280;10876;49.038;10.608;2023-05-12T04:37:26;100440.03;;;10.29;100.00
21431;BME280;10876;49.038;10.608;2023-05-12T04:39:52;100425.47;;;10.23;100.00
21431;BME280;10876;49.038;10.608;2023-05-12T04:42:19;100411.25;;;10.26;100.00
21431;BME280;10876;49.038;10.608;2023-05-12T04:44:46;100406.38;;;10.28;100.00
21431;BME280;10876;49.038;10.608;2023-05-12T04:47:12;100393.44;;;10.24;100.00
21431;BME280;10876;49.038;10.608;2023-05-12T04:49:39;100387.44;;;10.27;100.00
21431;BME280;10876;49.038;10.608;2023-05-12T04:52:07;100382.75;;;10.22;100.00
21431;BME280;10876;49.038;10.608;2023-05-12T04:54:34;100379.47;;;10.25;100.00
21431;BME280;10876;49.038;10.608;2023-05-12T04:57:00;100374.09;;;10.41;100.00
21431;BME280;10876;49.038;10.608;2023-05-12T04:59:27;100353.78;;;10.31;100.00
21431;BME280;10876;49.038;10.608;2023-05-12T05:01:56;100339.53;;;10.29;100.00
21431;BME280;10876;49.038;10.608;2023-05-12T05:04:22;100327.69;;;10.24;100.00
21431;BME280;10876;49.038;10.608;2023-05-12T05:06:49;100317.09;;;10.27;100.00
21431;BME280;10876;49.038;10.608;2023-05-12T05:09:17;100303.94;;;10.29;100.00
21431;BME280;10876;49.038;10.608;2023-05-12T05:11:44;100293.78;;;10.30;100.00
21431;BME280;10876;49.038;10.608;2023-05-12T05:14:11;100275.19;;;10.32;100.00
21431;BME280;10876;49.038;10.608;2023-05-12T05:16:37;100317.63;;;10.29;100.00
21431;BME280;10876;49.038;10.608;2023-05-12T05:19:04;100303.41;;;10.37;100.00
21431;BME280;10876;49.038;10.608;2023-05-12T05:21:31;100312.16;;;10.34;100.00
21431;BME280;10876;49.038;10.608;2023-05-12T05:23:58;100295.16;;;10.32;100.00
21431;BME280;10876;49.038;10.608;2023-05-12T05:26:27;100281.72;;;10.26;100.00
21431;BME280;10876;49.038;10.608;2023-05-12T05:28:53;100280.38;;;10.28;100.00
21431;BME280;10876;49.038;10.608;2023-05-12T05:31:20;100279.56;;;10.33;100.00
21431;BME280;10876;49.038;10.608;2023-05-12T05:33:47;100263.69;;;10.35;100.00
21431;BME280;10876;49.038;10.608;2023-05-12T05:36:14;100244.78;;;10.28;100.00
21431;BME280;10876;49.038;10.608;2023-05-12T05:38:40;100246.44;;;10.34;100.00
21431;BME280;10876;49.038;10.608;2023-05-12T05:41:07;100240.41;;;10.37;100.00
21431;BME280;10876;49.038;10.608;2023-05-12T05:43:35;100224.50;;;10.34;100.00
21431;BME280;10876;49.038;10.608;2023-05-12T05:46:02;100214.09;;;10.31;100.00
21431;BME280;10876;49.038;10.608;2023-05-12T05:48:29;100199.06;;;10.34;100.00
21431;BME280;10876;49.038;10.608;2023-05-12T05:50:56;100188.91;;;10.40;100.00
21431;BME280;10876;49.038;10.608;2023-05-12T05:53:23;100179.03;;;10.44;100.00
21431;BME280;10876;49.038;10.608;2023-05-12T05:55:49;100166.72;;;10.51;100.00
21431;BME280;10876;49.038;10.608;2023-05-12T05:58:16;100167.00;;;10.55;100.00
21431;BME280;10876;49.038;10.608;2023-05-12T06:00:44;100163.69;;;10.58;100.00
21431;BME280;10876;49.038;10.608;2023-05-12T06:03:11;100149.44;;;10.66;100.00
21431;BME280;10876;49.038;10.608;2023-05-12T06:05:37;100140.41;;;10.60;100.00
21431;BME280;10876;49.038;10.608;2023-05-12T06:08:06;100136.88;;;10.65;100.00
21431;BME280;10876;49.038;10.608;2023-05-12T06:10:35;100118.75;;;10.74;100.00
21431;BME280;10876;49.038;10.608;2023-05-12T06:13:02;100123.41;;;10.79;100.00
21431;BME280;10876;49.038;10.608;2023-05-12T06:15:28;100111.84;;;10.87;100.00
21431;BME280;10876;49.038;10.608;2023-05-12T06:17:57;100096.81;;;10.85;100.00
21431;BME280;10876;49.038;10.608;2023-05-12T06:20:23;100090.22;;;10.86;100.00
21431;BME280;10876;49.038;10.608;2023-05-12T06:22:51;100080.91;;;10.81;100.00
21431;BME280;10876;49.038;10.608;2023-05-12T06:25:17;100083.34;;;10.93;100.00
21431;BME280;10876;49.038;10.608;2023-05-12T06:27:44;100073.22;;;10.89;100.00
21431;BME280;10876;49.038;10.608;2023-05-12T06:30:12;100062.25;;;10.83;100.00
21431;BME280;10876;49.038;10.608;2023-05-12T06:32:40;100039.50;;;10.88;100.00
21431;BME280;10876;49.038;10.608;2023-05-12T06:35:08;100042.25;;;10.83;100.00
21431;BME280;10876;49.038;10.608;2023-05-12T06:37:35;100035.41;;;10.80;100.00
21431;BME280;10876;49.038;10.608;2023-05-12T06:40:03;100020.06;;;10.85;100.00
21431;BME280;10876;49.038;10.608;2023-05-12T06:42:30;100005.81;;;10.88;100.00
21431;BME280;10876;49.038;10.608;2023-05-12T06:44:57;99996.47;;;10.83;100.00
21431;BME280;10876;49.038;10.608;2023-05-12T06:47:25;99987.75;;;10.76;100.00
21431;BME280;10876;49.038;10.608;2023-05-12T06:49:51;99974.56;;;10.78;100.00
21431;BME280;10876;49.038;10.608;2023-05-12T06:52:19;99952.06;;;10.81;100.00
21431;BME280;10876;49.038;10.608;2023-05-12T06:54:48;99940.03;;;10.82;100.00
21431;BME280;10876;49.038;10.608;2023-05-12T06:57:14;99923.03;;;10.86;100.00
21431;BME280;10876;49.038;10.608;2023-05-12T06:59:41;99919.16;;;10.87;100.00
21431;BME280;10876;49.038;10.608;2023-05-12T07:02:08;99884.06;;;10.89;100.00
21431;BME280;10876;49.038;10.608;2023-05-12T07:04:34;99875.22;;;11.02;100.00
21431;BME280;10876;49.038;10.608;2023-05-12T07:07:01;99858.19;;;11.05;100.00
21431;BME280;10876;49.038;10.608;2023-05-12T07:09:29;99839.78;;;11.11;100.00
21431;BME280;10876;49.038;10.608;2023-05-12T07:11:56;99810.34;;;11.21;100.00
21431;BME280;10876;49.038;10.608;2023-05-12T07:14:23;99794.56;;;11.37;100.00
21431;BME280;10876;49.038;10.608;2023-05-12T07:16:50;99786.16;;;11.53;100.00
21431;BME280;10876;49.038;10.608;2023-05-12T07:19:17;99759.50;;;11.58;100.00
21431;BME280;10876;49.038;10.608;2023-05-12T07:21:43;99751.75;;;11.65;100.00
21431;BME280;10876;49.038;10.608;2023-05-12T07:24:10;99727.38;;;11.83;100.00
21431;BME280;10876;49.038;10.608;2023-05-12T07:26:38;99716.75;;;12.00;100.00
21431;BME280;10876;49.038;10.608;2023-05-12T07:29:05;99697.88;;;12.12;100.00
21431;BME280;10876;49.038;10.608;2023-05-12T07:31:35;99666.94;;;12.07;100.00
21431;BME280;10876;49.038;10.608;2023-05-12T07:34:01;99662.56;;;12.25;100.00
21431;BME280;10876;49.038;10.608;2023-05-12T07:36:28;99627.75;;;12.01;100.00
21431;BME280;10876;49.038;10.608;2023-05-12T07:38:55;99600.16;;;11.92;100.00
21431;BME280;10876;49.038;10.608;2023-05-12T07:41:22;99587.00;;;12.08;100.00
21431;BME280;10876;49.038;10.608;2023-05-12T07:43:50;99574.66;;;12.25;100.00
21431;BME280;10876;49.038;10.608;2023-05-12T07:46:17;99563.06;;;12.28;100.00
21431;BME280;10876;49.038;10.608;2023-05-12T07:48:44;99542.03;;;12.37;100.00
21431;BME280;10876;49.038;10.608;2023-05-12T07:51:10;99536.97;;;12.72;100.00
21431;BME280;10876;49.038;10.608;2023-05-12T07:53:37;99524.03;;;12.58;100.00
21431;BME280;10876;49.038;10.608;2023-05-12T07:56:04;99501.84;;;12.55;100.00
21431;BME280;10876;49.038;10.608;2023-05-12T07:58:32;99480.88;;;12.73;100.00
21431;BME280;10876;49.038;10.608;2023-05-12T08:01:00;99477.63;;;12.71;100.00
21431;BME280;10876;49.038;10.608;2023-05-12T08:03:30;99458.06;;;12.58;100.00
21431;BME280;10876;49.038;10.608;2023-05-12T08:05:57;99445.13;;;12.59;100.00
21431;BME280;10876;49.038;10.608;2023-05-12T08:08:23;99438.22;;;12.61;100.00
21431;BME280;10876;49.038;10.608;2023-05-12T08:10:50;99442.19;;;12.69;100.00
21431;BME280;10876;49.038;10.608;2023-05-12T08:13:17;99440.25;;;12.70;100.00
21431;BME280;10876;49.038;10.608;2023-05-12T08:15:43;99427.53;;;12.74;100.00
21431;BME280;10876;49.038;10.608;2023-05-12T08:18:13;99440.16;;;12.75;100.00
21431;BME280;10876;49.038;10.608;2023-05-12T08:20:40;99430.56;;;12.86;100.00
21431;BME280;10876;49.038;10.608;2023-05-12T08:23:06;99441.69;;;13.76;100.00
21431;BME280;10876;49.038;10.608;2023-05-12T08:25:33;99431.25;;;14.58;100.00
21431;BME280;10876;49.038;10.608;2023-05-12T08:28:01;99384.53;;;14.13;100.00
21431;BME280;10876;49.038;10.608;2023-05-12T08:30:28;99385.22;;;14.27;100.00
21431;BME280;10876;49.038;10.608;2023-05-12T08:32:54;99353.53;;;13.98;100.00
21431;BME280;10876;49.038;10.608;2023-05-12T08:35:23;99311.34;;;13.49;100.00
21431;BME280;10876;49.038;10.608;2023-05-12T08:37:50;99302.66;;;13.65;100.00
21431;BME280;10876;49.038;10.608;2023-05-12T08:40:20;99269.38;;;13.44;100.00
21431;BME280;10876;49.038;10.608;2023-05-12T08:42:52;99238.50;;;13.56;100.00
21431;BME280;10876;49.038;10.608;2023-05-12T08:45:23;99222.44;;;13.89;100.00
21431;BME280;10876;49.038;10.608;2023-05-12T08:47:50;99210.09;;;13.86;100.00
21431;BME280;10876;49.038;10.608;2023-05-12T08:50:21;99187.75;;;13.31;100.00
21431;BME280;10876;49.038;10.608;2023-05-12T08:52:49;99165.91;;;13.03;100.00
21431;BME280;10876;49.038;10.608;2023-05-12T08:55:17;99113.22;;;13.18;100.00
21431;BME280;10876;49.038;10.608;2023-05-12T08:57:44;99102.50;;;13.39;100.00
21431;BME280;10876;49.038;10.608;2023-05-12T09:00:13;99088.75;;;13.57;100.00
21431;BME280;10876;49.038;10.608;2023-05-12T09:02:42;99070.47;;;13.95;100.00
21431;BME280;10876;49.038;10.608;2023-05-12T09:05:09;99111.75;;;13.69;100.00
21431;BME280;10876;49.038;10.608;2023-05-12T09:07:41;99113.34;;;13.53;100.00
21431;BME280;10876;49.038;10.608;2023-05-12T09:10:13;99117.66;;;13.28;100.00
21431;BME280;10876;49.038;10.608;2023-05-12T09:12:41;99096.47;;;13.28;100.00
21431;BME280;10876;49.038;10.608;2023-05-12T09:15:15;99088.56;;;13.44;100.00
21431;BME280;10876;49.038;10.608;2023-05-12T09:17:43;99064.94;;;13.43;100.00
21431;BME280;10876;49.038;10.608;2023-05-12T09:20:11;99043.44;;;13.71;100.00
21431;BME280;10876;49.038;10.608;2023-05-12T09:22:38;99035.97;;;13.72;100.00
21431;BME280;10876;49.038;10.608;2023-05-12T09:25:15;99010.72;;;13.70;100.00
21431;BME280;10876;49.038;10.608;2023-05-12T09:27:43;99002.78;;;13.86;100.00
21431;BME280;10876;49.038;10.608;2023-05-12T09:30:10;98960.19;;;13.66;100.00
21431;BME280;10876;49.038;10.608;2023-05-12T09:32:37;98953.53;;;13.67;100.00
21431;BME280;10876;49.038;10.608;2023-05-12T09:35:05;98954.53;;;13.71;100.00
21431;BME280;10876;49.038;10.608;2023-05-12T09:37:33;98932.50;;;13.71;100.00
21431;BME280;10876;49.038;10.608;2023-05-12T09:40:00;98910.25;;;13.93;100.00
21431;BME280;10876;49.038;10.608;2023-05-12T09:42:30;98904.97;;;13.80;100.00
21431;BME280;10876;49.038;10.608;2023-05-12T09:44:58;98888.59;;;13.74;100.00
21431;BME280;10876;49.038;10.608;2023-05-12T09:47:26;98860.53;;;13.25;100.00
21431;BME280;10876;49.038;10.608;2023-05-12T09:49:54;98849.81;;;13.06;100.00
21431;BME280;10876;49.038;10.608;2023-05-12T09:52:22;98826.88;;;12.85;100.00
21431;BME280;10876;49.038;10.608;2023-05-12T09:54:48;98823.78;;;12.78;100.00
21431;BME280;10876;49.038;10.608;2023-05-12T09:57:19;98812.63;;;12.74;100.00
21431;BME280;10876;49.038;10.608;2023-05-12T09:59:48;98816.53;;;12.91;100.00
21431;BME280;10876;49.038;10.608;2023-05-12T10:02:15;98800.50;;;12.93;100.00
21431;BME280;10876;49.038;10.608;2023-05-12T10:04:46;98791.59;;;12.96;100.00
21431;BME280;10876;49.038;10.608;2023-05-12T10:07:13;98787.22;;;13.03;100.00
21431;BME280;10876;49.038;10.608;2023-05-12T10:09:43;98757.28;;;13.02;100.00
21431;BME280;10876;49.038;10.608;2023-05-12T10:12:11;98746.47;;;12.97;100.00
21431;BME280;10876;49.038;10.608;2023-05-12T10:14:39;98728.50;;;13.08;100.00
21431;BME280;10876;49.038;10.608;2023-05-12T10:17:08;98710.34;;;13.16;100.00
21431;BME280;10876;49.038;10.608;2023-05-12T10:19:36;98691.63;;;13.09;100.00
21431;BME280;10876;49.038;10.608;2023-05-12T10:22:09;98685.91;;;13.23;100.00
21431;BME280;10876;49.038;10.608;2023-05-12T10:24:36;98680.41;;;13.23;100.00
21431;BME280;10876;49.038;10.608;2023-05-12T10:27:06;98687.22;;;13.17;100.00
21431;BME280;10876;49.038;10.608;2023-05-12T10:29:33;98675.09;;;13.18;100.00
21431;BME280;10876;49.038;10.608;2023-05-12T10:32:00;98679.25;;;13.24;100.00
21431;BME280;10876;49.038;10.608;2023-05-12T10:34:32;98675.91;;;13.10;100.00
21431;BME280;10876;49.038;10.608;2023-05-12T10:36:59;98662.06;;;12.97;100.00
21431;BME280;10876;49.038;10.608;2023-05-12T10:39:28;98661.75;;;12.90;100.00
21431;BME280;10876;49.038;10.608;2023-05-12T10:42:00;98662.59;;;12.82;100.00
21431;BME280;10876;49.038;10.608;2023-05-12T10:44:29;98660.81;;;12.77;100.00
21431;BME280;10876;49.038;10.608;2023-05-12T10:46:56;98650.47;;;12.74;100.00
21431;BME280;10876;49.038;10.608;2023-05-12T10:49:32;98662.44;;;12.70;100.00
21431;BME280;10876;49.038;10.608;2023-05-12T10:52:02;98651.97;;;12.54;100.00
21431;BME280;10876;49.038;10.608;2023-05-12T10:54:29;98661.66;;;12.43;100.00
21431;BME280;10876;49.038;10.608;2023-05-12T10:56:57;98660.88;;;12.34;100.00
21431;BME280;10876;49.038;10.608;2023-05-12T10:59:26;98664.09;;;12.18;100.00
21431;BME280;10876;49.038;10.608;2023-05-12T11:01:57;98664.44;;;12.08;100.00
21431;BME280;10876;49.038;10.608;2023-05-12T11:04:37;98671.66;;;11.95;100.00
21431;BME280;10876;49.038;10.608;2023-05-12T11:07:06;98677.50;;;11.94;100.00
21431;BME280;10876;49.038;10.608;2023-05-12T11:09:34;98683.25;;;11.84;100.00
21431;BME280;10876;49.038;10.608;2023-05-12T11:12:01;98688.13;;;11.95;100.00
21431;BME280;10876;49.038;10.608;2023-05-12T11:14:27;98692.16;;;11.89;100.00
21431;BME280;10876;49.038;10.608;2023-05-12T11:16:54;98695.56;;;11.95;100.00
21431;BME280;10876;49.038;10.608;2023-05-12T11:19:21;98697.38;;;12.08;100.00
21431;BME280;10876;49.038;10.608;2023-05-12T11:21:49;98693.81;;;12.16;100.00
21431;BME280;10876;49.038;10.608;2023-05-12T11:24:16;98699.63;;;12.41;100.00
21431;BME280;10876;49.038;10.608;2023-05-12T11:26:42;98709.16;;;12.61;100.00
21431;BME280;10876;49.038;10.608;2023-05-12T11:29:09;98703.66;;;12.78;100.00
21431;BME280;10876;49.038;10.608;2023-05-12T11:31:37;98682.50;;;12.61;100.00
21431;BME280;10876;49.038;10.608;2023-05-12T11:34:05;98685.06;;;12.67;100.00
21431;BME280;10876;49.038;10.608;2023-05-12T11:36:36;98696.88;;;12.67;100.00
21431;BME280;10876;49.038;10.608;2023-05-12T11:39:04;98697.06;;;12.53;100.00
21431;BME280;10876;49.038;10.608;2023-05-12T11:41:31;98679.59;;;12.49;100.00
21431;BME280;10876;49.038;10.608;2023-05-12T11:43:58;98683.50;;;12.48;100.00
21431;BME280;10876;49.038;10.608;2023-05-12T11:46:25;98673.59;;;12.56;100.00
21431;BME280;10876;49.038;10.608;2023-05-12T11:48:56;98688.19;;;12.48;100.00
21431;BME280;10876;49.038;10.608;2023-05-12T11:51:24;98681.84;;;12.47;100.00
21431;BME280;10876;49.038;10.608;2023-05-12T11:53:51;98674.09;;;12.49;100.00
21431;BME280;10876;49.038;10.608;2023-05-12T11:56:20;98685.88;;;12.58;100.00
21431;BME280;10876;49.038;10.608;2023-05-12T11:58:51;98677.47;;;12.63;100.00
21431;BME280;10876;49.038;10.608;2023-05-12T12:01:19;98682.19;;;12.54;100.00
21431;BME280;10876;49.038;10.608;2023-05-12T12:03:46;98683.81;;;12.38;100.00
21431;BME280;10876;49.038;10.608;2023-05-12T12:06:14;98679.59;;;12.49;100.00
21431;BME280;10876;49.038;10.608;2023-05-12T12:08:49;98674.44;;;12.39;100.00
21431;BME280;10876;49.038;10.608;2023-05-12T12:11:16;98659.88;;;12.47;100.00
21431;BME280;10876;49.038;10.608;2023-05-12T12:13:48;98667.00;;;12.48;100.00
21431;BME280;10876;49.038;10.608;2023-05-12T12:16:17;98661.16;;;12.58;100.00
21431;BME280;10876;49.038;10.608;2023-05-12T12:18:43;98660.47;;;12.79;100.00
21431;BME280;10876;49.038;10.608;2023-05-12T12:21:10;98656.59;;;12.80;100.00
21431;BME280;10876;49.038;10.608;2023-05-12T12:23:37;98643.63;;;12.89;100.00
21431;BME280;10876;49.038;10.608;2023-05-12T12:26:03;98643.88;;;13.14;100.00
21431;BME280;10876;49.038;10.608;2023-05-12T12:28:30;98630.00;;;13.01;100.00
21431;BME280;10876;49.038;10.608;2023-05-12T12:30:58;98620.63;;;13.02;100.00
21431;BME280;10876;49.038;10.608;2023-05-12T12:33:25;98620.91;;;13.10;100.00
21431;BME280;10876;49.038;10.608;2023-05-12T12:35:52;98608.53;;;12.95;100.00
21431;BME280;10876;49.038;10.608;2023-05-12T12:38:18;98610.66;;;12.89;100.00